RTG weather

Frans Sales Lega Airport
Satar Tacik-Flores Island, Nusa Tenggara Timur, Indonesia

Public forecast

Using degrees Celsius for public forecast. Weather courtesy of forecast.io.

Closest aviation weather report (METAR) to Frans Sales Lega Airport

Closest report is El Tari Airport, 211.5 nm (391.7 km) ESE. Retrieved 2020/05/27 21:00 UTC (24 minutes ago):

WATT 272100Z 00000KT 8000 FEW016CB FEW016 23/23 Q1013 NOSIG RMK CB TO SW

Closest aviation forecast (TAF) to Frans Sales Lega Airport

Closest forecast is El Tari Airport, 211.5 nm (391.7 km) ESE. Retrieved 2020/05/27 18:00 UTC (3 hours ago):

TAF WATT 271700Z 2718/2818 17003KT 8000 FEW018 BECMG 2802/2804 30012KT PROB30 TEMPO 2806/2810 5000 -TSRA FEW016CB BKN017 BECMG 2812/2814 10005KT